KBBD/BBD METAR and TAF weather

Enter ICAO airport designator
Station Type Date Time Source
KBBD METAR 2018/04/21 11:35 UTC NOAA

KBBD 211135Z AUTO 14008KT 3SM BR OVC003 13/12 A2995 RMK AO2


Station Type Date Time Source
KBBD Decoded METAR 2018/04/21 11:35 UTC NOAA

Brady, Curtis Field Airport, TX, United States (KBBD) 31-10-45N 099-19-26W
Apr 21, 2018 - 07:35 AM EDT / 2018.04.21 1135 UTC
Wind: from the SE (140 degrees) at 9 MPH (8 KT):0
Visibility: 3 mile(s):0
Sky conditions: overcast
Weather: mist
Temperature: 55 F (13 C)
Dew Point: 53 F (12 C)
Relative Humidity: 93%
Pressure (altimeter): 29.95 in. Hg (1014 hPa)
ob: KBBD 211135Z AUTO 14008KT 3SM BR OVC003 13/12 A2995 RMK AO2
cycle: 11

Station Type Date Time Source
KBBD TAF 2018/04/21 12:33 UTC NOAA

TAF KBBD 211130Z 2112/2212 14009G16KT 4SM BR OVC003
FM211600 19012G17KT P6SM OVC015
FM211900 25013G19KT P6SM SCT250
FM220000 01013G19KT P6SM FEW250
FM220900 35009KT P6SM BKN010


Example: see airport list